Nearby METAR Reports

 

KPMD - Palmdale, California, USA
Distance from station: NNE 12mi, 19km
Updated: Wed, 23-Aug-2017 5:53am PDT
Clear
Clear
 Wind from SSW
Wind: SSW 5 mph , 7 km/h
Temperature: 70°F , 21°C
Dew Point: 43°F , 6°C
Humidity: 38%
Barometer: 30.02 inHg , 1016.6 hPa
Clouds: Clear
Visibility: 10 miles , 16 km
2017/08/23 12:53 KPMD 231253Z AUTO 21004KT 10SM CLR 21/06 A3002 RMK AO2 SLP133 T02060056
KWJF - Lancaster/Fox, California, USA
Distance from station: N 17mi, 27km
Updated: Wed, 23-Aug-2017 5:56am PDT
Clear
Clear
 Wind from NE
Wind: NE 3 mph , 6 km/h
Temperature: 63°F , 17°C
Dew Point: 39°F , 4°C
Humidity: 42%
Barometer: 30.01 inHg , 1016.3 hPa
Clouds: Clear
Visibility: 10 miles , 16 km
2017/08/23 12:56 KWJF 231256Z AUTO 04003KT 10SM CLR 17/04 A3001 RMK AO2 SLP142 T01720044
 
KMWS - Mount Wilson, California, USA
Distance from station: SSE 18mi, 30km
Updated: Wed, 13-May-2015 6:45am PDT
NOT Current

 Wind from S
Wind: S 3 mph , 6 km/h, Gust: 5 mph , 7 km/h
Temperature: 43°F , 6°C
Dew Point: -0°F , -18°C
Humidity: 16%
2015/05/13 13:45 KMWS 131345Z 18003G04KT 06/M18 RMK SNOW DEPTH 1.00
KWHP - La / Whiteman, California, USA
Distance from station: SW 21mi, 34km
Updated: Tue, 22-Aug-2017 7:55pm PDT
NOT Current
Clear
Clear
 Wind from ESE
Wind: ESE 6 mph , 9 km/h
Temperature: 75°F , 24°C
Dew Point: 61°F , 16°C
Humidity: 61%
Barometer: 29.97 inHg , 1014.9 hPa
Clouds: Clear
Visibility: 10 miles , 16 km
2017/08/23 02:55 KWHP 230255Z 11005KT 10SM SKC 24/16 A2997
 
KBUR - Burbank, California, USA
Distance from station: SSW 22mi, 35km
Updated: Wed, 23-Aug-2017 6:34am PDT
Mist, Mostly cloudy
Mist, Mostly cloudy
 Wind from SSE
Wind: SSE 6 mph , 9 km/h
Temperature: 64°F , 18°C
Dew Point: 61°F , 16°C
Humidity: 88%
Barometer: 29.97 inHg , 1014.9 hPa
Summary: Mist
Clouds: Mostly cloudy
Visibility: 5 miles , 8 km
Cloud details: Mostly cloudy 1200 ft
2017/08/23 13:34 KBUR 231334Z 16005KT 5SM BR BKN012 18/16 A2997 RMK AO2 T01780156
KVNY - Van Nuys, California, USA
Distance from station: SW 25mi, 40km
Updated: Wed, 23-Aug-2017 6:51am PDT
Clear
Clear
 Wind from SE
Wind: SE 6 mph , 9 km/h
Temperature: 64°F , 18°C
Dew Point: 61°F , 16°C
Humidity: 88%
Barometer: 29.97 inHg , 1014.9 hPa
Clouds: Clear
Visibility: 8 miles , 13 km
2017/08/23 13:51 KVNY 231351Z 13005KT 8SM CLR 18/16 A2997 RMK AO2 SLP141 T01780161
 
KEDW - Edwards Afb, California, USA
Distance from station: NNE 33mi, 53km
Updated: Wed, 23-Aug-2017 5:58am PDT
Few Clouds
Few Clouds
 Wind from WSW
Wind: WSW 6 mph , 9 km/h
Temperature: 66°F , 19°C
Dew Point: 41°F , 5°C
Humidity: 40%
Barometer: 29.97 inHg , 1014.9 hPa
Clouds: Few Clouds
Visibility: 90 miles , 144 km
Cloud details: Few Clouds 12000 ft
2017/08/23 12:58 KEDW 231258Z 24005KT 90SM FEW120 19/05 A2997 RMK AO2A SLP123 T01870053
KSMO - Santa Monica, California, USA
Distance from station: SSW 35mi, 57km
Updated: Wed, 23-Aug-2017 6:51am PDT
Overcast
Overcast
 Wind from calm
Wind: Calm
Temperature: 66°F , 19°C
Dew Point: 63°F , 17°C
Humidity: 88%
Barometer: 29.98 inHg , 1015.2 hPa
Clouds: Overcast
Visibility: 10 miles , 16 km
Cloud details: Overcast 1000 ft
2017/08/23 13:51 KSMO 231351Z 00000KT 10SM OVC010 19/17 A2998 RMK AO2 SLP149 T01940172
 
KLAX - Los Angeles, California, USA
Distance from station: SSW 39mi, 63km
Updated: Wed, 23-Aug-2017 5:53am PDT
Overcast
Overcast
 Wind from W
Wind: W 5 mph , 7 km/h
Temperature: 66°F , 19°C
Dew Point: 64°F , 18°C
Humidity: 94%
Barometer: 29.96 inHg , 1014.6 hPa
Clouds: Overcast
Visibility: 9 miles , 14 km
Cloud details: Overcast 1200 ft
2017/08/23 12:53 KLAX 231253Z 26004KT 9SM OVC012 19/18 A2996 RMK AO2 SLP142 T01940178
KMHV - Mojave, California, USA
Distance from station: N 41mi, 66km
Updated: Wed, 23-Aug-2017 6:20am PDT
Clear
Clear
 Wind from calm
Wind: Calm
Temperature: 68°F , 20°C
Dew Point: 45°F , 7°C
Humidity: 43%
Barometer: 30.02 inHg , 1016.6 hPa
Clouds: Clear
Visibility: 8 miles , 13 km
2017/08/23 13:20 KMHV 231320Z AUTO 00000KT 8SM CLR 20/07 A3002 RMK A01
 
KFUL - Fullerton, California, USA
Distance from station: SSE 44mi, 70km
Updated: Wed, 23-Aug-2017 6:29am PDT
Overcast
Overcast
 Wind from calm
Wind: Calm
Temperature: 70°F , 21°C
Dew Point: 63°F , 17°C
Humidity: 78%
Barometer: 29.96 inHg , 1014.6 hPa
Clouds: Overcast
Visibility: 8 miles , 13 km
Cloud details: Overcast 1500 ft
2017/08/23 13:29 KFUL 231329Z AUTO 00000KT 8SM OVC015 21/17 A2996 RMK AO2 T02060172
KONT - Ontario, California, USA
Distance from station: SE 45mi, 72km
Updated: Wed, 23-Aug-2017 6:19am PDT
Mist, Partly cloudy
Mist, Partly cloudy
 Wind from WSW
Wind: WSW 6 mph , 9 km/h
Temperature: 64°F , 18°C
Dew Point: 61°F , 16°C
Humidity: 88%
Barometer: 29.98 inHg , 1015.2 hPa
Summary: Mist
Clouds: Partly cloudy
Visibility: 5 miles , 8 km
Cloud details: Partly cloudy 900 ft
Partly cloudy 15000 ft
2017/08/23 13:19 KONT 231319Z 24005KT 5SM BR SCT009 SCT150 18/16 A2998 RMK AO2 T01780161
 
KLGB - Long Beach, California, USA
Distance from station: S 46mi, 74km
Updated: Wed, 23-Aug-2017 5:53am PDT
Overcast
Overcast
 Wind from SE
Wind: SE 5 mph , 7 km/h
Temperature: 68°F , 20°C
Dew Point: 64°F , 18°C
Humidity: 88%
Barometer: 29.96 inHg , 1014.6 hPa
Clouds: Overcast
Visibility: 10 miles , 16 km
Cloud details: Overcast 1400 ft
2017/08/23 12:53 KLGB 231253Z AUTO 14004KT 10SM OVC014 20/18 A2996 RMK AO2 SLP145 T02000178
KVCV - Victorville, California, USA
Distance from station: E 46mi, 74km
Updated: Wed, 23-Aug-2017 6:35am PDT
Clear
Clear
 Wind from S
Wind: S 9 mph , 15 km/h
Temperature: 63°F , 17°C
Dew Point: 43°F , 6°C
Humidity: 49%
Barometer: 30.04 inHg , 1017.3 hPa
Clouds: Clear
Visibility: 10 miles , 16 km
2017/08/23 13:35 KVCV 231335Z AUTO 18008KT 10SM CLR 17/06 A3004 RMK AO2
 
KTSP - Tehachapi, California, USA
Distance from station: NNW 48mi, 77km
Updated: Wed, 23-Aug-2017 6:35am PDT
Clear
Clear
 Wind from calm
Wind: Calm
Temperature: 55°F , 13°C
Dew Point: 46°F , 8°C
Humidity: 72%
Barometer: 30.13 inHg , 1020.3 hPa
Clouds: Clear
Visibility: 9 miles , 14 km
2017/08/23 13:35 KTSP 231335Z AUTO 00000KT 9SM CLR 13/08 A3013 RMK AO2